Stevensville, Maryland
Current Conditions -  °F | °C
As of 5:43 PM on Monday 22 Dec 2014 (Local Time) from KNAK Reporting Station
Light Rain Light Rain  
Wind Chill: 30°   Ceiling: 1700
Heat Index: 36°   Visibility: 3mi
Dew Point: 34°   Wind: 8mph
Humidity: 93%   Direction: 350°N
Pressure: 30.16"   Gusts: NA
Location:  38.98°N, 76.31°W
Report Text: KNAK 222243Z AUTO 35007KT 3SM -RA BR FEW008 OVC017 02/01 A3016 RMK AO2 UPB03E07 P0002 T00220011
Loading
Personal Weather Stations






























Interactive Weather Map New forecast layout! Learn more

10-Day Weather Forecast

Advertisements
Track Severe Weather on mobile